createdAt,value
2023-05-19T04:01:40.240Z,2.63
2023-05-19T04:04:07.546Z,2.03
2023-05-19T04:06:34.521Z,1.65
2023-05-19T04:09:02.656Z,2.17
2023-05-19T04:11:29.408Z,2.40
2023-05-19T04:13:56.217Z,1.80
2023-05-19T04:16:23.038Z,1.95
2023-05-19T04:18:49.815Z,2.90
2023-05-19T04:21:16.608Z,2.17
2023-05-19T04:23:43.550Z,3.30
2023-05-19T04:26:10.464Z,2.22
2023-05-19T04:28:40.007Z,2.90
2023-05-19T04:31:10.998Z,2.92
2023-05-19T04:33:38.505Z,3.25
2023-05-19T04:36:08.741Z,2.00
2023-05-19T04:38:36.819Z,2.95
2023-05-19T04:41:04.468Z,2.97
2023-05-19T04:43:31.569Z,2.35
2023-05-19T04:45:58.478Z,2.38
2023-05-19T04:48:26.006Z,2.08
2023-05-19T04:50:53.166Z,2.33
2023-05-19T04:53:21.740Z,2.40
2023-05-19T04:55:48.767Z,2.38
2023-05-19T04:58:17.123Z,1.73
2023-05-19T05:00:43.983Z,3.00
2023-05-19T05:03:12.308Z,2.47
2023-05-19T05:05:39.142Z,2.28
2023-05-19T05:08:06.088Z,2.47
2023-05-19T05:10:33.063Z,2.20
2023-05-19T05:13:00.892Z,2.25
2023-05-19T05:15:29.820Z,2.63
2023-05-19T05:17:56.847Z,2.95
2023-05-19T05:20:24.044Z,1.73
2023-05-19T05:22:51.226Z,2.88
2023-05-19T05:25:18.520Z,2.22
2023-05-19T05:27:45.438Z,3.38
2023-05-19T05:30:12.564Z,2.33
2023-05-19T05:32:39.460Z,2.10
2023-05-19T05:35:07.452Z,3.03
2023-05-19T05:37:34.263Z,1.73
2023-05-19T05:40:00.978Z,2.75
2023-05-19T05:42:29.713Z,2.72
2023-05-19T05:44:56.679Z,3.33
2023-05-19T05:47:23.503Z,2.25
2023-05-19T05:49:52.112Z,2.65
2023-05-19T05:52:22.504Z,2.70
2023-05-19T05:54:49.618Z,2.20
2023-05-19T05:57:16.560Z,3.45
2023-05-19T05:59:45.480Z,3.40
2023-05-19T06:02:12.373Z,2.60
2023-05-19T06:04:39.197Z,3.03
2023-05-19T06:07:06.280Z,3.45
2023-05-19T06:09:33.131Z,2.42
2023-05-19T06:12:02.644Z,3.45
2023-05-19T06:14:29.477Z,2.80
2023-05-19T06:16:56.340Z,3.45
2023-05-19T06:19:25.310Z,3.22
2023-05-19T06:21:52.444Z,3.00
2023-05-19T06:24:19.421Z,3.33
2023-05-19T06:26:46.256Z,4.30
2023-05-19T06:29:13.116Z,3.28
2023-05-19T06:31:40.025Z,2.88
2023-05-19T06:34:06.945Z,2.08
2023-05-19T06:36:35.312Z,2.72
2023-05-19T06:39:02.828Z,2.75
2023-05-19T06:41:29.734Z,3.35
2023-05-19T06:43:56.581Z,2.58
2023-05-19T06:46:23.309Z,2.30
2023-05-19T06:48:50.172Z,3.05
2023-05-19T06:51:21.704Z,3.25
2023-05-19T06:53:49.217Z,2.60
2023-05-19T06:56:16.385Z,3.10
2023-05-19T06:58:43.794Z,2.83
2023-05-19T07:01:10.617Z,2.50
2023-05-19T07:03:37.840Z,2.47
2023-05-19T07:06:07.741Z,3.15
2023-05-19T07:08:37.075Z,3.35
2023-05-19T07:11:04.058Z,4.30
2023-05-19T07:13:32.826Z,3.33
2023-05-19T07:15:59.696Z,3.92
2023-05-19T07:18:26.697Z,3.58
2023-05-19T07:20:53.995Z,3.60
2023-05-19T07:23:21.149Z,2.72
2023-05-19T07:25:48.064Z,4.50
2023-05-19T07:28:14.936Z,3.63
2023-05-19T07:30:41.882Z,3.40
2023-05-19T07:33:08.909Z,3.08
2023-05-19T07:35:35.852Z,3.72
2023-05-19T07:38:03.966Z,2.70
2023-05-19T07:40:31.684Z,4.00
2023-05-19T07:42:58.752Z,2.88
2023-05-19T07:45:25.707Z,3.05
2023-05-19T07:47:54.184Z,4.45
2023-05-19T07:50:21.038Z,3.80
2023-05-19T07:52:47.851Z,3.80
2023-05-19T07:55:15.000Z,2.95
2023-05-19T07:57:42.325Z,2.92
2023-05-19T08:00:15.607Z,5.10
2023-05-19T08:02:46.684Z,4.15
2023-05-19T08:05:13.799Z,4.03
2023-05-19T08:07:40.639Z,3.70
2023-05-19T08:10:07.940Z,3.65
2023-05-19T08:12:34.801Z,4.75
2023-05-19T08:15:01.948Z,4.85
2023-05-19T08:17:28.927Z,3.00
2023-05-19T08:19:55.757Z,4.03
2023-05-19T08:22:23.234Z,4.25
2023-05-19T08:24:51.888Z,3.13
2023-05-19T08:27:19.633Z,4.07
2023-05-19T08:29:46.566Z,4.10
2023-05-19T08:32:13.566Z,4.53
2023-05-19T08:34:44.055Z,5.05
2023-05-19T08:37:11.946Z,4.22
2023-05-19T08:39:38.791Z,3.75
2023-05-19T08:42:07.535Z,4.15
2023-05-19T08:44:34.612Z,4.22
2023-05-19T08:47:04.976Z,2.72
2023-05-19T08:49:33.770Z,3.20
2023-05-19T08:52:26.916Z,4.90
2023-05-19T08:55:01.061Z,3.08
2023-05-19T08:57:28.562Z,4.47
2023-05-19T08:59:56.618Z,2.92
2023-05-19T09:02:24.140Z,2.65
2023-05-19T09:04:52.016Z,2.25
2023-05-19T09:07:19.923Z,2.08
2023-05-19T09:09:47.722Z,3.20
2023-05-19T09:12:14.921Z,2.33
2023-05-19T09:14:42.458Z,3.17
2023-05-19T09:17:10.025Z,3.58
2023-05-19T09:19:48.121Z,2.67
2023-05-19T09:22:16.212Z,2.75
2023-05-19T09:24:43.674Z,3.33
2023-05-19T09:27:14.802Z,2.30
2023-05-19T09:29:42.851Z,2.85
2023-05-19T09:32:10.076Z,2.67
2023-05-19T09:34:41.732Z,2.70
2023-05-19T09:37:08.706Z,3.28
2023-05-19T09:39:35.800Z,2.70
2023-05-19T09:42:05.297Z,3.63
2023-05-19T09:44:35.399Z,2.90
2023-05-19T09:47:02.271Z,3.28
2023-05-19T09:49:31.388Z,2.42
2023-05-19T09:52:00.330Z,3.05
2023-05-19T09:54:32.078Z,2.80
2023-05-19T09:57:00.214Z,3.20
2023-05-19T09:59:32.084Z,2.97
2023-05-19T10:04:28.619Z,3.10
2023-05-19T10:06:59.400Z,2.42
2023-05-19T10:09:30.256Z,2.55
2023-05-19T10:11:58.517Z,1.85
2023-05-19T10:14:27.200Z,3.33
2023-05-19T10:16:56.726Z,2.05
2023-05-19T10:19:28.593Z,2.10
2023-05-19T10:21:56.380Z,1.98
2023-05-19T10:24:24.196Z,2.70
2023-05-19T10:27:06.576Z,2.63
2023-05-19T10:29:37.818Z,2.40
2023-05-19T10:32:10.459Z,3.60
2023-05-19T10:37:35.148Z,2.20
2023-05-19T10:40:10.434Z,3.13
2023-05-19T10:43:12.166Z,4.28
2023-05-19T10:45:49.344Z,3.28
2023-05-19T10:48:18.963Z,3.30
2023-05-19T10:50:46.885Z,4.85
2023-05-19T10:53:22.545Z,4.97
2023-05-19T10:55:56.209Z,2.55
2023-05-19T10:58:57.896Z,2.40
2023-05-19T11:01:31.260Z,2.58
2023-05-19T11:03:58.275Z,2.67
2023-05-19T11:06:38.535Z,2.97
2023-05-19T11:09:16.675Z,2.20
2023-05-19T11:11:54.563Z,2.08
2023-05-19T11:14:23.610Z,1.85
2023-05-19T11:16:52.119Z,2.88
2023-05-19T11:19:28.496Z,2.05
2023-05-19T11:21:57.654Z,2.10
2023-05-19T11:24:54.640Z,2.67
2023-05-19T11:27:34.328Z,3.17
2023-05-19T11:30:19.967Z,2.72
2023-05-19T11:32:50.226Z,3.10
2023-05-19T11:35:21.093Z,2.80
2023-05-19T11:37:51.392Z,2.92
2023-05-19T11:40:18.999Z,2.97
2023-05-19T11:42:46.234Z,3.53
2023-05-19T11:45:13.303Z,4.07
2023-05-19T11:47:56.378Z,3.08
2023-05-19T11:50:27.372Z,2.80
2023-05-19T11:52:55.408Z,3.10
2023-05-19T11:55:22.704Z,3.35
2023-05-19T11:58:03.952Z,2.75
2023-05-19T12:00:39.663Z,2.63
2023-05-19T12:03:07.523Z,2.50
2023-05-19T12:05:41.930Z,2.35
2023-05-19T12:08:10.546Z,2.58
2023-05-19T12:10:38.364Z,2.38
2023-05-19T12:13:08.972Z,2.63
2023-05-19T12:15:36.574Z,2.70
2023-05-19T12:18:03.537Z,2.78
2023-05-19T12:20:32.596Z,2.80
2023-05-19T12:23:03.795Z,2.13
2023-05-19T12:25:32.039Z,2.47
2023-05-19T12:28:00.719Z,2.05
2023-05-19T12:30:29.405Z,2.13
2023-05-19T12:32:59.580Z,1.98
2023-05-19T12:35:34.348Z,1.90
2023-05-19T12:38:07.379Z,1.70
2023-05-19T12:40:35.799Z,2.10
2023-05-19T12:43:03.479Z,2.13
2023-05-19T12:45:34.905Z,2.53
2023-05-19T12:48:11.729Z,2.28
2023-05-19T12:50:38.983Z,2.55
2023-05-19T12:53:10.761Z,2.33
2023-05-19T12:55:44.434Z,3.10
2023-05-19T12:58:12.342Z,2.55
2023-05-19T13:00:45.701Z,2.97
2023-05-19T13:03:22.341Z,2.90
2023-05-19T13:05:56.393Z,3.33
2023-05-19T13:08:25.981Z,3.05
2023-05-19T13:10:53.690Z,3.80
2023-05-19T13:13:20.628Z,3.00
2023-05-19T13:15:51.442Z,3.33
2023-05-19T13:18:18.510Z,3.53
2023-05-19T13:20:47.034Z,3.22
2023-05-19T13:23:14.727Z,3.83
2023-05-19T13:25:42.606Z,3.72
2023-05-19T13:28:10.303Z,3.92
2023-05-19T13:30:39.844Z,4.13
2023-05-19T13:33:07.264Z,4.43
2023-05-19T13:35:37.361Z,3.47
2023-05-19T13:38:11.356Z,4.13
2023-05-19T13:40:39.530Z,3.67
2023-05-19T13:43:07.320Z,3.42
2023-05-19T13:45:34.177Z,3.38
2023-05-19T13:48:01.310Z,3.67
2023-05-19T13:50:28.304Z,3.45
2023-05-19T13:52:55.110Z,3.10
2023-05-19T13:55:23.301Z,3.33
2023-05-19T13:57:50.947Z,3.63
2023-05-19T14:00:19.012Z,3.58
2023-05-19T14:02:46.386Z,2.95
2023-05-19T14:05:13.512Z,3.47
2023-05-19T14:07:40.568Z,3.40
2023-05-19T14:10:08.036Z,3.08
2023-05-19T14:12:49.388Z,3.65
2023-05-19T14:15:23.009Z,3.92
2023-05-19T14:17:49.859Z,2.80
2023-05-19T14:20:17.052Z,2.83
2023-05-19T14:22:43.862Z,3.30
2023-05-19T14:25:11.746Z,4.03
2023-05-19T14:27:39.913Z,3.20
2023-05-19T14:30:08.016Z,2.80
2023-05-19T14:32:34.969Z,4.00
2023-05-19T14:35:02.048Z,3.60
2023-05-19T14:37:29.064Z,3.13
2023-05-19T14:39:56.903Z,2.83
2023-05-19T14:42:23.853Z,3.10
2023-05-19T14:44:50.585Z,3.58
2023-05-19T14:47:17.305Z,3.15
2023-05-19T14:49:44.039Z,3.25
2023-05-19T14:52:10.825Z,4.13
2023-05-19T14:54:37.534Z,4.93
2023-05-19T14:57:04.536Z,3.30
2023-05-19T14:59:31.417Z,3.35
2023-05-19T15:01:58.174Z,3.28
2023-05-19T15:04:25.125Z,3.40
2023-05-19T15:07:05.993Z,3.15
2023-05-19T15:09:36.749Z,3.80
2023-05-19T15:12:03.573Z,2.78
2023-05-19T15:14:30.992Z,3.42
2023-05-19T15:16:58.060Z,3.67
2023-05-19T15:19:25.085Z,3.40
2023-05-19T15:21:51.918Z,4.18
2023-05-19T15:24:19.244Z,3.78
2023-05-19T15:26:46.224Z,5.15
2023-05-19T15:29:13.235Z,4.35
2023-05-19T15:31:40.144Z,3.95
2023-05-19T15:34:06.925Z,3.88
2023-05-19T15:36:33.652Z,4.45
2023-05-19T15:39:00.553Z,3.60
2023-05-19T15:41:27.365Z,4.85
2023-05-19T15:43:54.178Z,4.00
2023-05-19T15:46:21.013Z,4.18
2023-05-19T15:48:47.842Z,3.30
2023-05-19T15:51:14.785Z,4.00
2023-05-19T15:53:41.546Z,3.58
2023-05-19T15:56:08.379Z,3.67
2023-05-19T15:58:35.096Z,5.60
2023-05-19T16:01:04.360Z,4.13
2023-05-19T16:03:31.495Z,4.72
2023-05-19T16:05:58.452Z,4.55
2023-05-19T16:08:25.716Z,4.53
2023-05-19T16:10:52.558Z,4.97
2023-05-19T16:13:19.447Z,5.28
2023-05-19T16:15:46.213Z,4.25
2023-05-19T16:18:13.152Z,4.50
2023-05-19T16:20:39.974Z,4.30
2023-05-19T16:23:06.706Z,4.72
2023-05-19T16:25:33.848Z,4.85
2023-05-19T16:28:00.711Z,4.30
2023-05-19T16:30:28.035Z,4.50
2023-05-19T16:32:54.844Z,3.75
2023-05-19T16:35:21.988Z,3.67
2023-05-19T16:37:49.287Z,5.05
2023-05-19T16:40:16.196Z,4.15
2023-05-19T16:42:43.390Z,3.65
2023-05-19T16:45:10.446Z,5.10
2023-05-19T16:47:37.847Z,4.18
2023-05-19T16:50:05.527Z,3.20
2023-05-19T16:52:32.397Z,3.38
2023-05-19T16:54:59.180Z,3.97
2023-05-19T16:57:25.952Z,3.75
2023-05-19T16:59:54.849Z,5.07
2023-05-19T17:02:22.778Z,4.53
2023-05-19T17:04:49.553Z,4.45
2023-05-19T17:07:18.804Z,4.47
2023-05-19T17:09:45.588Z,4.03
2023-05-19T17:12:13.269Z,4.47
2023-05-19T17:14:39.974Z,3.65
2023-05-19T17:17:06.908Z,4.40
2023-05-19T17:19:34.037Z,4.38
2023-05-19T17:22:01.216Z,4.20
2023-05-19T17:24:33.158Z,3.50
2023-05-19T17:29:30.656Z,3.80
2023-05-19T17:31:57.699Z,4.00
2023-05-19T17:34:24.788Z,3.38
2023-05-19T17:36:51.690Z,3.35
2023-05-19T17:39:20.159Z,4.20
2023-05-19T17:41:46.912Z,3.42
2023-05-19T17:44:13.700Z,3.53
2023-05-19T17:46:41.113Z,4.72
2023-05-19T17:49:08.048Z,2.97
2023-05-19T17:51:35.070Z,3.47
2023-05-19T17:54:02.215Z,3.20
2023-05-19T17:56:33.028Z,3.42
2023-05-19T17:59:00.129Z,4.30
2023-05-19T18:01:27.165Z,3.65
2023-05-19T18:03:54.341Z,3.03
2023-05-19T18:06:22.937Z,2.90
2023-05-19T18:08:51.590Z,2.47
2023-05-19T18:11:18.858Z,2.78
2023-05-19T18:13:45.658Z,3.67
2023-05-19T18:16:12.728Z,3.45
2023-05-19T18:18:43.352Z,2.55
2023-05-19T18:21:17.624Z,3.60
2023-05-19T18:23:48.034Z,3.10
2023-05-19T18:26:15.850Z,3.50
2023-05-19T18:28:43.379Z,2.75
2023-05-19T18:31:15.597Z,2.85
2023-05-19T18:36:09.995Z,2.55
2023-05-19T18:38:36.746Z,2.10
2023-05-19T18:41:03.496Z,3.55
2023-05-19T18:43:32.416Z,2.58
2023-05-19T18:45:59.272Z,2.67
2023-05-19T18:48:26.897Z,3.63
2023-05-19T18:50:53.886Z,2.70
2023-05-19T18:53:22.451Z,2.50
2023-05-19T18:55:49.180Z,2.05
2023-05-19T18:58:16.980Z,1.95
2023-05-19T19:00:43.975Z,2.42
2023-05-19T19:03:11.995Z,2.05
2023-05-19T19:05:40.450Z,2.30
2023-05-19T19:08:07.208Z,2.75
2023-05-19T19:10:38.898Z,1.90
2023-05-19T19:13:05.996Z,1.70
2023-05-19T19:15:32.716Z,2.63
2023-05-19T19:17:59.453Z,2.33
2023-05-19T19:20:26.495Z,1.95
2023-05-19T19:22:53.551Z,1.50
2023-05-19T19:25:23.136Z,1.98
2023-05-19T19:27:50.701Z,1.77
2023-05-19T19:30:17.735Z,2.08
2023-05-19T19:32:44.583Z,1.98
2023-05-19T19:35:11.547Z,1.52
2023-05-19T19:37:38.346Z,1.95
2023-05-19T19:40:06.221Z,1.83
2023-05-19T19:42:33.130Z,2.25
2023-05-19T19:44:59.940Z,2.13
2023-05-19T19:47:27.387Z,1.80
2023-05-19T19:49:57.909Z,1.90
2023-05-19T19:52:25.217Z,1.73
2023-05-19T19:54:51.975Z,1.50
2023-05-19T19:57:19.106Z,2.53
2023-05-19T19:59:45.839Z,2.08
2023-05-19T20:02:12.626Z,2.65
2023-05-19T20:04:39.567Z,2.58
2023-05-19T20:07:06.310Z,3.10
2023-05-19T20:09:33.052Z,2.83
2023-05-19T20:11:59.883Z,2.15
2023-05-19T20:14:26.803Z,2.00
2023-05-19T20:16:53.544Z,2.58
2023-05-19T20:19:20.461Z,2.05
2023-05-19T20:21:47.260Z,2.17
2023-05-19T20:24:14.025Z,1.90
2023-05-19T20:26:41.186Z,3.00
2023-05-19T20:29:08.237Z,3.10
2023-05-19T20:31:35.099Z,2.20
2023-05-19T20:34:02.916Z,2.22
2023-05-19T20:36:31.191Z,1.70
2023-05-19T20:38:58.019Z,2.70
2023-05-19T20:41:24.821Z,1.55
2023-05-19T20:43:51.981Z,2.90
2023-05-19T20:46:19.337Z,2.75
2023-05-19T20:48:46.236Z,1.85
2023-05-19T20:51:12.963Z,2.47
2023-05-19T20:53:39.869Z,2.15
2023-05-19T20:56:07.458Z,2.45
2023-05-19T20:58:34.321Z,4.75
2023-05-19T21:01:01.185Z,3.20
2023-05-19T21:03:30.466Z,3.95
2023-05-19T21:05:57.743Z,3.92
2023-05-19T21:08:25.991Z,3.50
2023-05-19T21:10:52.794Z,3.17
2023-05-19T21:13:19.628Z,1.85
2023-05-19T21:15:46.593Z,2.90
2023-05-19T21:18:13.707Z,2.63
2023-05-19T21:20:41.103Z,2.63
2023-05-19T21:23:08.140Z,3.50
2023-05-19T21:25:35.256Z,2.35
2023-05-19T21:28:02.245Z,3.40
2023-05-19T21:30:29.000Z,2.47
2023-05-19T21:32:55.887Z,2.42
2023-05-19T21:35:22.836Z,3.40
2023-05-19T21:37:49.633Z,2.33
2023-05-19T21:40:17.731Z,3.20
2023-05-19T21:42:44.580Z,3.35
2023-05-19T21:45:11.662Z,2.28
2023-05-19T21:47:38.548Z,2.08
2023-05-19T21:50:06.132Z,2.63
2023-05-19T21:52:33.145Z,2.47
2023-05-19T21:54:59.937Z,2.95
2023-05-19T21:57:26.859Z,2.65
2023-05-19T21:59:53.727Z,2.20
2023-05-19T22:02:21.095Z,1.92
2023-05-19T22:04:47.929Z,2.58
2023-05-19T22:07:14.714Z,2.92
2023-05-19T22:09:41.609Z,2.75
2023-05-19T22:12:08.760Z,2.53
2023-05-19T22:14:35.849Z,2.08
2023-05-19T22:17:02.784Z,2.80
2023-05-19T22:19:29.759Z,2.58
2023-05-19T22:22:09.639Z,2.63
2023-05-19T22:24:40.471Z,2.25
2023-05-19T22:27:08.327Z,2.97
2023-05-19T22:29:36.855Z,2.47
2023-05-19T22:32:04.554Z,2.30
2023-05-19T22:34:31.402Z,2.83
2023-05-19T22:36:58.326Z,2.90
2023-05-19T22:39:25.295Z,2.30
2023-05-19T22:41:52.066Z,2.80
2023-05-19T22:44:19.602Z,2.70
2023-05-19T22:46:46.469Z,2.47
2023-05-19T22:49:13.460Z,2.72
2023-05-19T22:51:40.362Z,2.35
2023-05-19T22:54:08.202Z,2.10
2023-05-19T22:56:34.968Z,2.28
2023-05-19T22:59:01.726Z,2.65
2023-05-19T23:01:28.544Z,2.47
2023-05-19T23:03:55.555Z,3.05
2023-05-19T23:06:22.526Z,2.85
2023-05-19T23:09:04.558Z,3.22
2023-05-19T23:11:31.426Z,3.37
2023-05-19T23:13:58.258Z,3.38
2023-05-19T23:16:25.055Z,2.25
2023-05-19T23:18:51.912Z,3.15
2023-05-19T23:21:18.750Z,2.50
2023-05-19T23:23:45.527Z,2.50
2023-05-19T23:26:15.251Z,2.78
2023-05-19T23:28:42.682Z,2.13
2023-05-19T23:31:09.846Z,2.45
2023-05-19T23:33:36.872Z,2.83
2023-05-19T23:36:08.736Z,2.85
2023-05-19T23:38:39.038Z,1.77
2023-05-19T23:41:05.910Z,2.35
2023-05-19T23:43:33.145Z,2.17
2023-05-19T23:46:00.595Z,2.08
2023-05-19T23:48:28.642Z,2.08
2023-05-19T23:50:55.539Z,2.42
2023-05-19T23:53:22.320Z,2.67
2023-05-19T23:55:49.210Z,2.20
2023-05-19T23:58:16.077Z,1.85
